Time;durP1;ratioP1;P1;durP2;ratioP2;P2;SDS_P1;SDS_P2;PMS_P1;PMS_P2;Temp;Humidity;BMP_temperature;BMP_pressure;BME280_temperature;BME280_humidity;BME280_pressure;Samples;Min_cycle;Max_cycle;Signal;HPM_P1;HPM_P2
2022/01/19 00:01:09;;;;;;;22.25;13.25;;;;;;;1.13;82.69;101067.72;5006492;28;20061;-71
2022/01/19 00:03:35;;;;;;;22.55;12.77;;;;;;;1.12;83.74;101068.59;5007475;28;20041;-71
2022/01/19 00:06:00;;;;;;;21.27;11.57;;;;;;;1.46;86.39;101062.84;5003091;28;20095;-61
2022/01/19 00:08:26;;;;;;;18.75;10.70;;;;;;;1.83;83.80;101070.06;5011938;28;20034;-62
2022/01/19 00:10:52;;;;;;;19.83;11.13;;;;;;;1.85;81.87;101076.16;5011435;28;20258;-71
2022/01/19 00:13:18;;;;;;;23.95;14.80;;;;;;;1.77;81.47;101096.00;5010980;28;20155;-72
2022/01/19 00:15:45;;;;;;;25.90;13.15;;;;;;;1.66;81.98;101098.53;5012145;28;20053;-71
2022/01/19 00:18:10;;;;;;;27.25;12.10;;;;;;;1.58;82.59;101106.25;5011882;28;20041;-72
2022/01/19 00:20:36;;;;;;;17.45;11.75;;;;;;;1.53;82.72;101105.34;5012121;28;20034;-72
2022/01/19 00:23:03;;;;;;;18.40;11.40;;;;;;;1.49;82.76;101096.63;5012243;28;20053;-71
2022/01/19 00:25:30;;;;;;;23.85;12.93;;;;;;;1.52;82.85;101084.53;5011577;28;20492;-71
2022/01/19 00:27:55;;;;;;;26.05;12.40;;;;;;;1.52;82.81;101071.53;5012068;28;20071;-71
2022/01/19 00:30:21;;;;;;;17.60;11.38;;;;;;;1.52;82.67;101053.34;5011930;28;20046;-71
2022/01/19 00:32:46;;;;;;;19.38;10.45;;;;;;;1.52;83.17;101042.94;5011456;28;20048;-71
2022/01/19 00:35:12;;;;;;;22.10;13.20;;;;;;;1.50;82.34;101040.31;5011289;28;20124;-71
2022/01/19 00:37:40;;;;;;;19.73;11.85;;;;;;;1.47;83.36;101041.19;5011175;28;20487;-71
2022/01/19 00:40:08;;;;;;;23.70;13.25;;;;;;;1.47;83.05;101043.78;5012118;28;20042;-71
2022/01/19 00:42:33;;;;;;;23.60;12.13;;;;;;;1.47;83.08;101038.56;5011160;28;20042;-71
2022/01/19 00:44:59;;;;;;;20.52;11.82;;;;;;;1.47;83.07;101050.72;5011581;28;20037;-71
2022/01/19 00:47:24;;;;;;;24.75;14.27;;;;;;;1.45;83.22;101044.63;5011793;28;20380;-71
2022/01/19 00:49:50;;;;;;;27.83;14.18;;;;;;;1.44;83.93;101046.34;5011607;28;20042;-71
2022/01/19 00:52:16;;;;;;;29.15;16.65;;;;;;;1.47;84.31;101054.16;5010994;28;20398;-71
2022/01/19 00:54:41;;;;;;;30.80;14.20;;;;;;;1.53;84.02;101062.88;5012025;28;20034;-71
2022/01/19 00:57:08;;;;;;;18.70;11.35;;;;;;;1.52;83.52;101053.34;5011937;28;20086;-71
2022/01/19 00:59:34;;;;;;;19.33;12.65;;;;;;;1.51;83.06;101047.28;5011290;28;20407;-72
2022/01/19 01:02:01;;;;;;;18.10;11.93;;;;;;;1.53;83.08;101047.28;5010698;28;20040;-71
2022/01/19 01:04:26;;;;;;;18.33;11.18;;;;;;;1.52;82.86;101045.56;5010987;28;20061;-72
2022/01/19 01:06:52;;;;;;;18.45;10.73;;;;;;;1.54;83.03;101047.31;5010931;28;20041;-72
2022/01/19 01:09:17;;;;;;;21.95;14.23;;;;;;;1.55;83.09;101042.97;5010967;28;20533;-72
2022/01/19 01:12:21;;;;;;;24.35;15.63;;;;;;;1.55;83.67;101042.97;5009872;28;20510;-72
2022/01/19 01:20:05;;;;;;;21.95;14.98;;;;;;;1.53;83.52;101040.38;4991220;28;20053;-72
2022/01/19 01:22:31;;;;;;;23.90;15.07;;;;;;;1.48;83.06;101039.47;4989877;28;20031;-72
2022/01/19 01:24:56;;;;;;;23.30;14.38;;;;;;;1.46;83.24;101036.84;4989775;28;20431;-72
2022/01/19 01:27:22;;;;;;;27.67;17.80;;;;;;;1.47;83.52;101032.53;4989427;28;20519;-71
2022/01/19 01:29:47;;;;;;;21.77;12.98;;;;;;;1.47;83.67;101022.13;4991090;28;20088;-71
2022/01/19 01:32:12;;;;;;;21.05;13.77;;;;;;;1.48;83.26;101011.75;5007456;28;20037;-72
2022/01/19 01:34:38;;;;;;;27.25;17.10;;;;;;;1.49;83.32;101007.41;5010853;28;20034;-72
2022/01/19 01:37:03;;;;;;;25.80;13.48;;;;;;;1.50;83.17;101003.94;5011156;28;20034;-71
2022/01/19 01:39:29;;;;;;;27.42;16.95;;;;;;;1.54;82.97;100995.31;5009347;28;20038;-71
2022/01/19 01:41:54;;;;;;;35.78;18.75;;;;;;;1.56;83.61;100983.22;5009632;28;20042;-71
2022/01/19 01:44:19;;;;;;;32.58;20.83;;;;;;;1.57;83.60;100978.88;5009033;28;20104;-71
2022/01/19 01:46:53;;;;;;;25.95;14.15;;;;;;;1.59;83.50;100990.16;5009670;28;20038;-71
2022/01/19 01:49:27;;;;;;;20.58;14.00;;;;;;;1.60;83.27;100989.28;5009555;28;20081;-71
2022/01/19 01:54:38;;;;;;;35.60;18.10;;;;;;;1.60;83.24;100981.50;5011157;28;20041;-72
2022/01/19 01:57:05;;;;;;;29.67;20.42;;;;;;;1.58;83.62;100981.50;4994726;28;20046;-72
2022/01/19 01:59:33;;;;;;;33.35;19.40;;;;;;;1.54;83.43;100968.47;4990602;28;20037;-72
2022/01/19 02:01:59;;;;;;;27.73;17.65;;;;;;;1.53;83.26;100965.00;4934791;28;20046;-72
2022/01/19 02:04:25;;;;;;;21.92;14.52;;;;;;;1.54;83.62;100953.75;4990677;28;20038;-72
2022/01/19 02:09:22;;;;;;;18.77;12.75;;;;;;;1.61;83.02;100939.06;5010587;28;20045;-71
2022/01/19 02:23:00;;;;;;;24.40;13.68;;;;;;;1.59;82.38;100920.00;4991849;28;20049;-72
2022/01/19 02:25:37;;;;;;;24.70;13.73;;;;;;;1.59;82.21;100914.78;4990165;28;20041;-73
2022/01/19 02:41:37;;;;;;;35.25;17.80;;;;;;;1.05;82.74;100884.13;5008868;28;20145;-72
2022/01/19 02:44:03;;;;;;;26.00;16.33;;;;;;;0.96;83.12;100881.50;5009538;28;20036;-72
2022/01/19 02:49:16;;;;;;;30.52;17.40;;;;;;;0.81;83.37;100869.25;5009605;28;20057;-72
2022/01/19 02:51:47;;;;;;;28.15;16.20;;;;;;;0.81;84.70;100878.75;5008645;28;20471;-72
2022/01/19 02:54:14;;;;;;;29.77;18.73;;;;;;;0.84;83.90;100865.81;5008704;28;20029;-72
2022/01/19 02:56:42;;;;;;;32.10;18.73;;;;;;;0.79;84.32;100863.19;5007992;28;20058;-72
2022/01/19 02:59:27;;;;;;;29.45;16.15;;;;;;;0.80;84.79;100858.84;5008776;28;20120;-72
2022/01/19 03:10:05;;;;;;;22.38;13.82;;;;;;;0.93;84.30;100859.81;5009072;28;20060;-72
2022/01/19 03:12:30;;;;;;;20.48;14.48;;;;;;;0.91;84.21;100838.16;5006620;28;20452;-73
2022/01/19 03:14:56;;;;;;;18.50;12.35;;;;;;;0.99;84.04;100844.28;4992754;28;20109;-72
2022/01/19 03:17:22;;;;;;;24.48;13.75;;;;;;;1.10;84.20;100844.34;4989874;28;20120;-73
2022/01/19 03:19:47;;;;;;;18.85;12.40;;;;;;;1.13;83.64;100828.78;5007609;28;20037;-72
2022/01/19 03:22:12;;;;;;;22.20;12.95;;;;;;;1.19;84.05;100836.63;5007487;28;20045;-72
2022/01/19 03:24:39;;;;;;;22.58;12.50;;;;;;;1.21;83.47;100828.00;5008681;28;20042;-72
2022/01/19 03:27:06;;;;;;;25.50;14.27;;;;;;;1.26;83.19;100831.47;5009258;28;20053;-72
2022/01/19 03:29:31;;;;;;;17.67;12.23;;;;;;;1.31;83.86;100815.91;5008306;28;20041;-72
2022/01/19 03:31:56;;;;;;;19.98;12.98;;;;;;;1.30;82.87;100819.38;5007494;28;20030;-72
2022/01/19 03:34:22;;;;;;;24.88;15.10;;;;;;;1.28;82.71;100821.09;5008772;28;20048;-72
2022/01/19 03:36:47;;;;;;;29.08;15.48;;;;;;;1.27;83.77;100825.41;5008704;28;20157;-72
2022/01/19 03:39:12;;;;;;;20.73;12.05;;;;;;;1.36;83.79;100824.59;5008466;28;20045;-72
2022/01/19 03:41:38;;;;;;;21.35;13.10;;;;;;;1.44;83.20;100822.91;5008275;28;20046;-72
2022/01/19 03:44:03;;;;;;;21.30;14.32;;;;;;;1.40;83.21;100822.88;5007504;28;20036;-72
2022/01/19 03:46:34;;;;;;;19.58;13.40;;;;;;;1.42;83.36;100818.56;5008973;28;20056;-72
2022/01/19 03:49:09;;;;;;;26.73;15.95;;;;;;;1.49;83.45;100815.13;5008859;28;20061;-72
2022/01/19 03:51:34;;;;;;;20.73;11.32;;;;;;;1.54;83.59;100805.63;5007771;28;20065;-72
2022/01/19 03:54:00;;;;;;;18.52;14.00;;;;;;;1.65;84.01;100798.75;5008271;28;20041;-72
2022/01/19 03:56:25;;;;;;;15.95;11.55;;;;;;;1.75;83.79;100807.44;5006683;28;20074;-72
2022/01/19 03:58:51;;;;;;;17.45;12.10;;;;;;;1.85;84.19;100803.16;5008972;28;20034;-72
2022/01/19 04:01:17;;;;;;;16.65;12.10;;;;;;;1.91;83.72;100791.00;5007671;28;20100;-72
2022/01/19 04:06:30;;;;;;;22.08;14.65;;;;;;;2.03;83.05;100778.91;5007450;28;20048;-72
2022/01/19 04:08:55;;;;;;;21.02;14.98;;;;;;;2.09;82.58;100789.31;5008525;28;20034;-72
2022/01/19 04:11:23;;;;;;;15.77;10.80;;;;;;;2.16;83.13;100788.44;5007913;28;20399;-72
2022/01/19 04:16:20;;;;;;;14.40;9.95;;;;;;;2.37;82.38;100787.63;5008266;28;20515;-72
2022/01/19 04:18:45;;;;;;;18.67;13.32;;;;;;;2.43;81.87;100787.59;5008711;28;20049;-72
2022/01/19 04:21:13;;;;;;;14.38;11.05;;;;;;;2.48;82.11;100791.06;5007748;28;20084;-71
2022/01/19 04:23:38;;;;;;;14.43;11.65;;;;;;;2.53;81.53;100784.13;5007512;28;20500;-71
2022/01/19 04:26:03;;;;;;;12.77;11.35;;;;;;;2.58;81.46;100773.72;5008060;28;20111;-71
2022/01/19 04:28:29;;;;;;;15.70;10.50;;;;;;;2.65;81.30;100779.78;5008307;28;20529;-71
2022/01/19 04:30:54;;;;;;;13.95;11.10;;;;;;;2.74;81.20;100782.41;5007894;28;20428;-71
2022/01/19 04:33:24;;;;;;;12.82;10.48;;;;;;;2.86;80.72;100782.38;5006151;28;20061;-71
2022/01/19 04:35:52;;;;;;;12.38;9.93;;;;;;;2.95;80.71;100784.97;5007762;28;20168;-72
2022/01/19 05:05:47;;;;;;;14.10;10.93;;;;;;;3.27;78.57;100742.31;4990126;28;20030;-72
2022/01/19 05:08:20;;;;;;;10.65;9.23;;;;;;;3.26;77.68;100742.31;4990203;28;20030;-72
2022/01/19 05:13:35;;;;;;;10.88;9.13;;;;;;;3.31;77.54;100732.75;4991644;28;20439;-73
2022/01/19 05:16:00;;;;;;;;;;;;;;;3.30;77.68;100728.38;4991511;28;20034;-72
2022/01/19 05:18:26;;;;;;;13.07;10.17;;;;;;;3.34;77.64;100730.97;4991738;28;19925;-72
2022/01/19 05:20:53;;;;;;;14.07;10.48;;;;;;;3.38;77.22;100727.50;4990055;28;20034;-72
2022/01/19 05:23:18;;;;;;;14.38;10.70;;;;;;;3.39;77.30;100723.13;4990913;28;20120;-72
2022/01/19 05:25:45;;;;;;;12.05;10.23;;;;;;;3.41;77.33;100718.78;4991174;28;20118;-72
2022/01/19 05:28:11;;;;;;;11.95;10.48;;;;;;;3.42;77.50;100720.50;4991554;28;20113;-72
2022/01/19 05:30:37;;;;;;;14.38;10.77;;;;;;;3.44;76.86;100718.78;4991371;28;20450;-72
2022/01/19 05:33:02;;;;;;;10.95;9.52;;;;;;;3.42;76.58;100720.50;4993843;28;20531;-72
2022/01/19 05:35:27;;;;;;;10.93;9.73;;;;;;;3.39;77.23;100715.31;5010998;28;20033;-72
2022/01/19 05:37:53;;;;;;;11.18;9.98;;;;;;;3.43;77.19;100706.63;5002453;28;20042;-72
2022/01/19 05:40:19;;;;;;;13.18;10.68;;;;;;;3.47;77.57;100710.06;4990752;28;20042;-72
2022/01/19 05:42:48;;;;;;;12.20;10.25;;;;;;;3.50;77.37;100713.53;4990464;28;20042;-73
2022/01/19 05:45:13;;;;;;;12.02;10.60;;;;;;;3.52;76.97;100703.97;4990885;28;20405;-72
2022/01/19 05:47:39;;;;;;;12.60;10.55;;;;;;;3.49;77.07;100706.56;4990522;28;20079;-72
2022/01/19 05:50:04;;;;;;;12.38;11.07;;;;;;;3.51;76.87;100704.84;4990874;28;20141;-72
2022/01/19 05:52:30;;;;;;;12.18;10.93;;;;;;;3.50;76.82;100695.28;4996008;28;20073;-72
2022/01/19 05:54:55;;;;;;;13.20;11.18;;;;;;;3.50;76.62;100691.81;5007543;28;20034;-73
2022/01/19 05:57:21;;;;;;;11.43;10.05;;;;;;;3.47;76.39;100681.41;4996980;28;20057;-73
2022/01/19 05:59:46;;;;;;;13.65;11.32;;;;;;;3.49;76.30;100675.28;4990461;28;20123;-73
2022/01/19 06:02:12;;;;;;;11.40;9.70;;;;;;;3.48;76.36;100673.56;4989912;28;20054;-72
2022/01/19 06:04:38;;;;;;;19.15;10.43;;;;;;;3.50;76.05;100677.03;5006027;28;20053;-72
2022/01/19 06:07:03;;;;;;;13.02;10.60;;;;;;;3.48;75.42;100667.50;5002733;28;20086;-73
2022/01/19 06:09:47;;;;;;;13.13;11.48;;;;;;;3.45;75.46;100668.38;5009758;28;20444;-73
2022/01/19 06:12:14;;;;;;;14.23;10.80;;;;;;;3.42;75.59;100669.28;4990636;28;20034;-73
2022/01/19 06:14:41;;;;;;;11.27;10.07;;;;;;;3.45;75.68;100668.38;4990809;28;20042;-72
2022/01/19 06:17:08;;;;;;;11.40;9.88;;;;;;;3.50;75.51;100666.63;4989540;28;20038;-72
2022/01/19 06:19:34;;;;;;;11.90;10.68;;;;;;;3.52;75.49;100667.47;4989386;28;20034;-72
2022/01/19 06:22:00;;;;;;;14.70;11.77;;;;;;;3.53;75.18;100669.19;4988051;28;20035;-71
2022/01/19 06:24:25;;;;;;;11.18;9.45;;;;;;;3.54;75.16;100663.09;4990735;28;20031;-72
2022/01/19 06:26:51;;;;;;;10.65;9.52;;;;;;;3.55;74.89;100656.16;4988260;28;20058;-72
2022/01/19 06:29:16;;;;;;;10.85;9.75;;;;;;;3.56;74.74;100645.72;4997042;28;20030;-72
2022/01/19 06:31:42;;;;;;;13.05;10.23;;;;;;;3.58;74.88;100637.88;5009622;28;20739;-72
2022/01/19 06:34:07;;;;;;;13.50;11.90;;;;;;;3.58;75.09;100633.53;5011491;28;20034;-71
2022/01/19 06:36:33;;;;;;;15.50;9.45;;;;;;;3.55;74.83;100625.75;5010573;28;20502;-71
2022/01/19 06:38:58;;;;;;;11.68;9.43;;;;;;;3.58;74.96;100630.94;5009191;28;20034;-72
2022/01/19 06:41:23;;;;;;;15.00;10.32;;;;;;;3.56;74.66;100622.25;5007252;28;20057;-71
2022/01/19 06:43:50;;;;;;;14.70;11.15;;;;;;;3.58;74.92;100612.66;5009881;28;20032;-72
2022/01/19 06:46:16;;;;;;;11.65;10.35;;;;;;;3.57;74.89;100608.34;5009863;28;20102;-72
2022/01/19 06:48:41;;;;;;;14.40;11.20;;;;;;;3.59;74.48;100611.81;5009332;28;20042;-73
2022/01/19 06:51:06;;;;;;;14.20;10.18;;;;;;;3.62;74.29;100609.19;5008712;28;20042;-72
2022/01/19 06:53:32;;;;;;;10.70;9.30;;;;;;;3.62;74.66;100598.75;5008774;28;20751;-72
2022/01/19 06:55:58;;;;;;;10.85;9.18;;;;;;;3.70;74.63;100605.66;5009478;28;20499;-72
2022/01/19 06:58:24;;;;;;;11.57;9.85;;;;;;;3.69;74.27;100601.28;5009336;28;20046;-72
2022/01/19 07:00:50;;;;;;;12.75;9.52;;;;;;;3.69;73.81;100594.31;5007076;28;20502;-71
2022/01/19 07:03:15;;;;;;;13.85;11.15;;;;;;;3.69;73.64;100596.94;5008471;28;20030;-73
2022/01/19 07:05:41;;;;;;;12.07;9.57;;;;;;;3.75;74.05;100599.50;5008846;28;20038;-72
2022/01/19 07:08:06;;;;;;;12.30;10.80;;;;;;;3.78;73.85;100603.84;5008434;28;20458;-72
2022/01/19 07:10:32;;;;;;;12.55;9.57;;;;;;;3.81;73.49;100601.19;5008803;28;20040;-72
2022/01/19 07:13:02;;;;;;;13.05;10.10;;;;;;;3.82;73.52;100590.75;5009007;28;20066;-72
2022/01/19 07:15:28;;;;;;;11.88;10.02;;;;;;;3.82;73.42;100587.28;5008385;28;20033;-73
2022/01/19 07:17:53;;;;;;;12.05;9.98;;;;;;;3.80;73.11;100578.59;4988987;28;20097;-72
2022/01/19 07:20:18;;;;;;;13.45;9.75;;;;;;;3.81;72.94;100588.16;5007904;28;20063;-72
2022/01/19 07:22:44;;;;;;;12.35;8.65;;;;;;;3.83;73.19;100587.25;5007785;28;20034;-71
2022/01/19 07:25:10;;;;;;;18.45;10.32;;;;;;;3.81;73.02;100585.53;5009239;28;20044;-72
2022/01/19 07:27:35;;;;;;;12.65;8.68;;;;;;;3.81;73.26;100593.38;5009411;28;20116;-71
2022/01/19 07:30:01;;;;;;;11.68;8.88;;;;;;;3.82;73.29;100590.75;5008981;28;20061;-72
2022/01/19 07:32:34;;;;;;;12.32;9.50;;;;;;;3.83;73.03;100587.25;5007866;28;20088;-73
2022/01/19 07:34:59;;;;;;;18.25;10.65;;;;;;;3.91;73.64;100594.16;5007006;28;20034;-73
2022/01/19 07:37:25;;;;;;;11.15;9.80;;;;;;;3.92;72.65;100596.75;5008479;28;20045;-73
2022/01/19 07:39:50;;;;;;;10.70;9.57;;;;;;;3.94;72.25;100594.13;5008393;28;20080;-74
2022/01/19 07:42:16;;;;;;;11.80;10.30;;;;;;;3.96;72.28;100601.06;4989872;28;20048;-73
2022/01/19 07:44:41;;;;;;;15.88;9.98;;;;;;;3.94;72.32;100596.72;5008551;28;20064;-73
2022/01/19 07:47:06;;;;;;;15.43;9.07;;;;;;;3.95;72.23;100601.94;5008866;28;20029;-72
2022/01/19 07:49:32;;;;;;;13.77;11.52;;;;;;;3.96;72.11;100608.88;5009297;28;20033;-72
2022/01/19 07:51:57;;;;;;;18.60;9.50;;;;;;;3.97;72.78;100604.56;5008684;28;20041;-72
2022/01/19 07:54:23;;;;;;;13.30;11.57;;;;;;;3.94;72.57;100602.84;5008521;28;20037;-73
2022/01/19 07:56:48;;;;;;;11.20;9.90;;;;;;;3.93;71.79;100598.47;5007931;28;20148;-73
2022/01/19 07:59:14;;;;;;;11.57;10.38;;;;;;;3.95;72.00;100586.28;5008007;28;20054;-73
2022/01/19 08:01:40;;;;;;;12.02;10.68;;;;;;;3.95;71.82;100596.72;5007724;28;20085;-73
2022/01/19 08:04:06;;;;;;;14.00;10.65;;;;;;;3.98;71.88;100585.41;5007532;28;20452;-74
2022/01/19 08:06:31;;;;;;;12.43;10.30;;;;;;;3.97;71.46;100592.38;5008273;28;20038;-73
2022/01/19 08:08:56;;;;;;;12.90;11.32;;;;;;;3.95;71.75;100583.69;5006729;28;20030;-73
2022/01/19 08:11:23;;;;;;;14.13;10.45;;;;;;;3.94;71.95;100583.69;5006827;28;20034;-72
2022/01/19 08:13:48;;;;;;;12.25;11.00;;;;;;;3.95;71.98;100586.28;5007996;28;20022;-72
2022/01/19 08:16:14;;;;;;;12.95;10.38;;;;;;;3.97;72.08;100586.28;5006233;28;20041;-72
2022/01/19 08:18:39;;;;;;;11.13;9.80;;;;;;;3.99;71.83;100588.00;5006523;28;20030;-72
2022/01/19 08:21:04;;;;;;;12.73;10.68;;;;;;;4.02;72.23;100576.66;5009454;28;20029;-72
2022/01/19 08:23:30;;;;;;;14.90;10.32;;;;;;;4.02;71.85;100568.84;5011933;28;20132;-74
2022/01/19 08:25:55;;;;;;;13.80;11.63;;;;;;;3.99;71.96;100568.88;5011919;28;20533;-72
2022/01/19 08:28:21;;;;;;;12.00;10.75;;;;;;;3.97;72.21;100570.63;5011409;28;20030;-72
2022/01/19 08:30:47;;;;;;;13.52;11.68;;;;;;;3.91;71.57;100570.69;5010641;28;20117;-71
2022/01/19 08:33:12;;;;;;;16.27;11.93;;;;;;;3.96;72.24;100568.88;5011104;28;20117;-72
2022/01/19 08:35:38;;;;;;;12.18;10.38;;;;;;;3.98;71.53;100562.78;5010994;28;20037;-71
2022/01/19 08:38:03;;;;;;;11.32;10.07;;;;;;;4.00;71.59;100557.56;5008859;28;20440;-71
2022/01/19 08:40:30;;;;;;;11.40;10.20;;;;;;;4.03;71.32;100558.38;5009910;28;20103;-72
2022/01/19 08:42:56;;;;;;;16.58;11.02;;;;;;;4.09;71.42;100552.25;5010298;28;20049;-72
2022/01/19 08:45:23;;;;;;;12.90;10.35;;;;;;;4.08;71.66;100551.38;5010622;28;20034;-71
2022/01/19 08:47:48;;;;;;;13.57;11.18;;;;;;;4.04;70.96;100554.91;5010592;28;20030;-71
2022/01/19 08:50:15;;;;;;;12.55;10.27;;;;;;;4.05;70.97;100559.22;5010977;28;20087;-72
2022/01/19 08:52:42;;;;;;;14.68;10.48;;;;;;;4.07;70.59;100565.31;5009655;28;20033;-72
2022/01/19 08:55:08;;;;;;;14.68;10.55;;;;;;;4.05;70.10;100556.63;5009908;28;20042;-73
2022/01/19 08:57:33;;;;;;;17.20;11.57;;;;;;;4.10;70.80;100561.78;5010742;28;20399;-73
2022/01/19 08:59:59;;;;;;;11.68;10.25;;;;;;;4.11;70.80;100557.44;5011818;28;20121;-71
2022/01/19 09:02:24;;;;;;;14.20;11.15;;;;;;;4.12;70.68;100565.25;5010712;28;20045;-71
2022/01/19 09:04:49;;;;;;;12.02;10.75;;;;;;;4.12;70.65;100562.66;5011062;28;20034;-71
2022/01/19 09:07:15;;;;;;;12.00;9.75;;;;;;;4.10;70.61;100564.41;5001114;28;20498;-72
2022/01/19 09:09:40;;;;;;;13.40;11.25;;;;;;;4.11;70.77;100555.72;4992843;28;20065;-71
2022/01/19 09:12:06;;;;;;;11.68;10.32;;;;;;;4.12;70.89;100559.19;4985299;28;20038;-71
2022/01/19 09:14:32;;;;;;;15.13;10.85;;;;;;;4.11;70.53;100560.03;4998170;28;20042;-71
2022/01/19 09:16:57;;;;;;;14.82;11.30;;;;;;;4.12;70.84;100549.59;5006518;28;20567;-72
2022/01/19 09:19:23;;;;;;;12.05;10.75;;;;;;;4.14;70.99;100549.59;5005349;28;20433;-72
2022/01/19 09:21:49;;;;;;;15.70;11.55;;;;;;;4.11;70.93;100545.28;5003482;28;20507;-72
2022/01/19 09:24:16;;;;;;;16.17;11.57;;;;;;;4.08;71.15;100551.38;5005333;28;20389;-71
2022/01/19 09:26:41;;;;;;;14.38;11.23;;;;;;;4.12;70.75;100548.75;5004487;28;20038;-70
2022/01/19 09:29:07;;;;;;;13.32;11.45;;;;;;;4.07;70.72;100549.66;4988295;28;20050;-73
2022/01/19 09:31:34;;;;;;;15.48;11.98;;;;;;;3.93;71.28;100541.09;5005218;28;20050;-70
2022/01/19 09:34:09;;;;;;;13.57;11.55;;;;;;;3.93;71.30;100537.63;5005789;28;20038;-71
2022/01/19 09:36:44;;;;;;;14.90;12.55;;;;;;;3.94;71.05;100532.41;5005607;28;20045;-71
2022/01/19 09:39:10;;;;;;;15.20;12.88;;;;;;;3.87;71.59;100526.38;5005670;28;20038;-72
2022/01/19 09:41:36;;;;;;;16.52;13.35;;;;;;;3.88;71.60;100506.38;5005325;28;20065;-72
2022/01/19 09:44:01;;;;;;;47.78;34.90;;;;;;;3.97;71.12;100508.03;5005315;28;20041;-72
2022/01/19 09:46:29;;;;;;;22.52;14.65;;;;;;;4.04;71.05;100521.00;5003766;28;20029;-72
2022/01/19 09:48:55;;;;;;;17.98;13.77;;;;;;;4.00;70.14;100511.44;5004161;28;20593;-73
2022/01/19 09:51:20;;;;;;;15.48;13.43;;;;;;;3.96;70.68;100507.13;5004531;28;20075;-71
2022/01/19 09:53:47;;;;;;;14.35;12.43;;;;;;;3.95;70.99;100502.81;5005359;28;20637;-72
2022/01/19 09:56:15;;;;;;;16.73;13.65;;;;;;;4.07;70.62;100492.25;5004680;28;20232;-71
2022/01/19 09:58:41;;;;;;;15.38;13.25;;;;;;;4.17;70.42;100494.75;5004236;28;20045;-72
2022/01/19 10:01:06;;;;;;;16.65;13.40;;;;;;;4.23;70.29;100498.16;5002964;28;20038;-72
2022/01/19 10:03:32;;;;;;;15.57;12.50;;;;;;;4.25;69.62;100499.00;4993674;28;20042;-72
2022/01/19 10:06:05;;;;;;;17.67;13.43;;;;;;;4.17;70.25;100492.16;4999671;28;20044;-72
2022/01/19 10:08:41;;;;;;;16.50;12.55;;;;;;;4.17;70.05;100490.41;5003788;28;20038;-72
2022/01/19 10:11:19;;;;;;;22.17;15.68;;;;;;;4.22;70.11;100487.72;4998551;28;20041;-70
2022/01/19 10:17:09;;;;;;;15.10;12.93;;;;;;;4.33;70.15;100483.22;4990499;28;20049;-70
2022/01/19 10:19:50;;;;;;;15.32;12.70;;;;;;;4.26;69.99;100473.78;4994496;28;20049;-70
2022/01/19 10:22:18;;;;;;;17.88;13.98;;;;;;;4.30;70.03;100459.78;4989009;28;20698;-71
2022/01/19 10:24:53;;;;;;;17.60;13.68;;;;;;;4.23;69.63;100455.53;4993659;28;20030;-70
2022/01/19 10:27:37;;;;;;;19.60;14.27;;;;;;;4.30;69.93;100452.81;4990154;28;20043;-71
2022/01/19 10:30:02;;;;;;;15.95;13.52;;;;;;;4.37;70.46;100453.59;4992498;28;20122;-71
2022/01/19 10:32:30;;;;;;;16.15;13.00;;;;;;;4.31;69.62;100453.69;4994720;28;20121;-70
2022/01/19 10:34:55;;;;;;;19.75;13.57;;;;;;;4.33;69.95;100448.44;4997763;28;20054;-71
2022/01/19 10:37:27;;;;;;;18.23;14.02;;;;;;;4.35;70.29;100433.63;5002261;28;20088;-71
2022/01/19 10:39:57;;;;;;;18.63;13.45;;;;;;;4.42;69.83;100436.13;4988028;28;20118;-71
2022/01/19 10:42:27;;;;;;;18.45;15.35;;;;;;;4.42;69.41;100435.28;4997599;28;20042;-71
2022/01/19 10:44:58;;;;;;;16.90;13.45;;;;;;;4.40;69.51;100435.28;4992767;28;20057;-71
2022/01/19 10:47:50;;;;;;;16.35;14.05;;;;;;;4.45;69.28;100419.56;4994992;28;20030;-71
2022/01/19 10:50:22;;;;;;;18.42;14.25;;;;;;;4.35;69.99;100423.19;5003183;28;20172;-71
2022/01/19 10:52:50;;;;;;;19.35;14.30;;;;;;;4.42;69.79;100414.38;5003484;28;20133;-72
2022/01/19 10:55:32;;;;;;;18.60;14.73;;;;;;;4.38;69.84;100413.59;4996583;28;20815;-72
2022/01/19 10:57:59;;;;;;;24.52;15.38;;;;;;;4.41;69.49;100410.94;4998816;28;20040;-72
2022/01/19 11:00:31;;;;;;;20.55;15.95;;;;;;;4.43;69.45;100409.16;5002624;28;20080;-71
2022/01/19 11:03:13;;;;;;;18.45;14.23;;;;;;;4.44;69.46;100404.78;5001522;28;20180;-70
2022/01/19 11:05:44;;;;;;;21.75;16.27;;;;;;;4.50;69.60;100397.75;4990991;28;20042;-72
2022/01/19 11:08:11;;;;;;;18.48;13.57;;;;;;;4.52;69.33;100401.19;4995751;28;20125;-72
2022/01/19 11:10:38;;;;;;;26.70;15.25;;;;;;;4.51;69.21;100407.28;5003493;28;20073;-71
2022/01/19 11:13:05;;;;;;;22.73;14.93;;;;;;;4.49;68.94;100403.84;4999366;28;20124;-71
2022/01/19 11:15:31;;;;;;;21.33;15.70;;;;;;;4.38;69.16;100405.75;5002132;28;20385;-72
2022/01/19 11:17:56;;;;;;;21.05;14.98;;;;;;;4.34;69.30;100390.16;4997887;28;20066;-71
2022/01/19 11:20:24;;;;;;;22.25;15.32;;;;;;;4.36;69.64;100388.38;5002502;28;20059;-71
2022/01/19 11:23:16;;;;;;;21.42;14.98;;;;;;;4.29;69.71;100379.78;4998639;28;20419;-70
2022/01/19 11:25:59;;;;;;;22.30;14.80;;;;;;;4.30;70.01;100378.88;4990539;28;20070;-70
2022/01/19 11:28:33;;;;;;;19.55;15.10;;;;;;;4.31;70.08;100378.00;5000789;28;20042;-72
2022/01/19 11:31:00;;;;;;;19.60;15.13;;;;;;;4.36;69.44;100370.97;4995902;28;20037;-72
2022/01/19 11:33:28;;;;;;;20.17;16.23;;;;;;;4.27;69.69;100364.13;4992468;28;20042;-72
2022/01/19 11:36:02;;;;;;;23.35;15.93;;;;;;;4.24;69.85;100363.31;4993751;28;20037;-72
2022/01/19 11:38:49;;;;;;;23.33;15.65;;;;;;;4.27;70.06;100363.25;4995534;28;20447;-72
2022/01/19 11:41:14;;;;;;;20.33;14.70;;;;;;;4.26;70.38;100362.41;4984795;28;20034;-72
2022/01/19 11:43:57;;;;;;;24.67;15.70;;;;;;;4.30;70.55;100358.00;4995755;28;20038;-72
2022/01/19 11:46:32;;;;;;;20.42;14.98;;;;;;;4.29;70.40;100356.28;4996723;28;20060;-72
2022/01/19 11:49:00;;;;;;;22.33;15.73;;;;;;;4.22;70.55;100352.88;4992372;28;20038;-72
2022/01/19 11:51:35;;;;;;;24.88;14.95;;;;;;;4.22;70.67;100354.66;4995348;28;20065;-72
2022/01/19 11:54:03;;;;;;;23.52;16.40;;;;;;;4.23;70.55;100356.34;5002168;28;20026;-70
2022/01/19 11:56:28;;;;;;;25.25;15.63;;;;;;;4.26;70.92;100346.75;5008038;28;20148;-72
2022/01/19 11:59:08;;;;;;;22.10;15.98;;;;;;;4.29;70.40;100343.22;5009049;28;20224;-72
2022/01/19 12:01:36;;;;;;;24.77;16.15;;;;;;;4.25;70.60;100324.13;5005480;28;20042;-71
2022/01/19 12:04:18;;;;;;;24.80;16.52;;;;;;;4.27;70.66;100313.69;5005554;28;21554;-72
2022/01/19 12:06:44;;;;;;;24.95;16.45;;;;;;;4.24;70.55;100321.56;5003780;28;20041;-72
2022/01/19 12:09:12;;;;;;;22.15;16.13;;;;;;;4.25;70.94;100318.91;5006486;28;20080;-71
2022/01/19 12:11:43;;;;;;;23.67;15.60;;;;;;;4.27;70.81;100314.53;5005079;28;20429;-71
2022/01/19 12:17:24;;;;;;;21.25;14.05;;;;;;;4.29;70.98;100298.88;5007123;28;20037;-72
2022/01/19 12:19:45;;;;;;;22.90;16.30;;;;;;;4.33;71.12;100299.66;5007199;28;20699;-72
2022/01/19 12:22:21;;;;;;;25.58;17.58;;;;;;;4.33;71.09;100300.53;5006833;28;20090;-72
2022/01/19 12:24:58;;;;;;;27.08;18.98;;;;;;;4.33;71.16;100292.69;5006516;28;20066;-72
2022/01/19 12:27:37;;;;;;;24.33;17.73;;;;;;;4.33;70.99;100286.63;5006870;28;20037;-71
2022/01/19 12:30:14;;;;;;;23.30;14.80;;;;;;;4.30;71.32;100282.31;5006322;28;20038;-70
2022/01/19 12:32:40;;;;;;;20.23;14.00;;;;;;;4.26;71.26;100278.91;5005197;28;20780;-71
2022/01/19 12:35:09;;;;;;;26.02;15.18;;;;;;;4.22;70.75;100279.81;5005804;28;20048;-70
2022/01/19 12:37:49;;;;;;;21.15;14.40;;;;;;;4.21;71.22;100278.09;5006347;28;20849;-71
2022/01/19 12:40:18;;;;;;;21.08;15.18;;;;;;;4.23;71.22;100275.44;4993421;28;20057;-71
2022/01/19 12:42:57;;;;;;;21.80;14.50;;;;;;;4.22;70.81;100261.56;5010939;28;20057;-70
2022/01/19 12:45:33;;;;;;;23.70;14.63;;;;;;;4.22;70.97;100255.47;5006440;28;20045;-70
2022/01/19 12:48:05;;;;;;;22.27;16.25;;;;;;;4.21;70.93;100259.84;5002660;28;20049;-69
2022/01/19 12:50:40;;;;;;;17.45;13.50;;;;;;;4.19;71.25;100266.81;5005415;28;20057;-72